Main page
METAR-TAF:

METAR-TAF

Airports :

Yerevan, Armenia

Zvartnots International Airport

latitude: 40-08-50N, longitude: 044-23-45E, elevation: 865 m

Current weather observation

The report was made 29 minutes ago, at 01:30 UTC
Wind 12 kt from the North/Northwest
Temperature 26°C
Humidity 45%
Pressure 1010 hPa
Visibility 10 km or more

METAR: UDYZ 290130Z 34012KT 9999 NSC 26/13 Q1010 R09/010070 NOSIG

Time: 05:59 (01:59 UTC)

Forecast

The report was made 2 hours and 54 minutes ago, at 23:05 UTC
Forecast valid from 29 at 00 UTC to 29 at 24 UTC
Wind 6 kt from the North/Northeast
Visibility 10 km or more
Few clouds at a height of 4000 ft
Temporary
from 29 at 06 UTC to 29 at 18 UTC
Wind 30 kt from variable directions
Broken clouds at a height of 3000 ft, Cumulonimbus.
thunderstorm, light rain

TAF: UDYZ 282305Z 2900/2924 03006KT 9999 FEW040 TEMPO 2906/2918 VRB30KT -TSRA BKN030CB

Weather observations and forecasts of more than 4000 airports (METAR and TAF reports).

The available stations are represented by yellow and red dots on the map.

Hover mouse over dot to see the name of the station.

Then click to see weather observations and forecasts.

To change the map : click on the green buttons with a black cross to zoom in, on the green button with a dash to zoom out, or on the green arrows for adjacent maps.


METAR-TAF: